sensor_id;sensor_type;location;lat;lon;timestamp;pressure;altitude;pressure_sealevel;temperature
62611;BMP280;48683;48.084;17.272;2023-03-01T00:01:07;101512.72;;;-0.33
62611;BMP280;48683;48.084;17.272;2023-03-01T00:03:33;101507.69;;;-0.30
62611;BMP280;48683;48.084;17.272;2023-03-01T00:05:59;101504.78;;;-0.28
62611;BMP280;48683;48.084;17.272;2023-03-01T00:08:25;101492.91;;;-0.31
62611;BMP280;48683;48.084;17.272;2023-03-01T00:13:27;101500.50;;;-0.24
62611;BMP280;48683;48.084;17.272;2023-03-01T00:15:52;101511.16;;;-0.11
62611;BMP280;48683;48.084;17.272;2023-03-01T00:18:17;101510.53;;;-0.03
62611;BMP280;48683;48.084;17.272;2023-03-01T00:20:52;101499.47;;;-0.05
62611;BMP280;48683;48.084;17.272;2023-03-01T00:23:18;101515.13;;;0.11
62611;BMP280;48683;48.084;17.272;2023-03-01T00:25:44;101515.34;;;0.14
62611;BMP280;48683;48.084;17.272;2023-03-01T00:28:09;101509.22;;;0.19
62611;BMP280;48683;48.084;17.272;2023-03-01T00:30:34;101509.72;;;0.21
62611;BMP280;48683;48.084;17.272;2023-03-01T00:33:00;101521.72;;;0.32
62611;BMP280;48683;48.084;17.272;2023-03-01T00:35:25;101512.16;;;0.36
62611;BMP280;48683;48.084;17.272;2023-03-01T00:37:50;101515.22;;;0.43
62611;BMP280;48683;48.084;17.272;2023-03-01T00:40:26;101506.66;;;0.51
62611;BMP280;48683;48.084;17.272;2023-03-01T00:42:51;101504.81;;;0.52
62611;BMP280;48683;48.084;17.272;2023-03-01T00:45:17;101516.53;;;0.64
62611;BMP280;48683;48.084;17.272;2023-03-01T00:47:43;101510.38;;;0.69
62611;BMP280;48683;48.084;17.272;2023-03-01T00:50:09;101506.66;;;0.70
62611;BMP280;48683;48.084;17.272;2023-03-01T00:52:34;101512.84;;;0.79
62611;BMP280;48683;48.084;17.272;2023-03-01T00:55:00;101508.88;;;0.81
62611;BMP280;48683;48.084;17.272;2023-03-01T00:57:25;101510.16;;;0.84
62611;BMP280;48683;48.084;17.272;2023-03-01T00:59:51;101510.16;;;0.84
62611;BMP280;48683;48.084;17.272;2023-03-01T01:02:18;101511.41;;;0.86
62611;BMP280;48683;48.084;17.272;2023-03-01T01:04:44;101509.28;;;0.88
62611;BMP280;48683;48.084;17.272;2023-03-01T01:07:09;101488.38;;;0.73
62611;BMP280;48683;48.084;17.272;2023-03-01T01:09:35;101488.56;;;0.77
62611;BMP280;48683;48.084;17.272;2023-03-01T01:12:01;101499.06;;;0.82
62611;BMP280;48683;48.084;17.272;2023-03-01T01:14:26;101487.06;;;0.71
62611;BMP280;48683;48.084;17.272;2023-03-01T01:16:51;101488.44;;;0.68
62611;BMP280;48683;48.084;17.272;2023-03-01T01:19:17;101478.94;;;0.67
62611;BMP280;48683;48.084;17.272;2023-03-01T01:21:42;101478.06;;;0.72
62611;BMP280;48683;48.084;17.272;2023-03-01T01:24:08;101480.72;;;0.72
62611;BMP280;48683;48.084;17.272;2023-03-01T01:26:34;101482.00;;;0.74
62611;BMP280;48683;48.084;17.272;2023-03-01T01:29:01;101480.44;;;0.73
62611;BMP280;48683;48.084;17.272;2023-03-01T01:31:27;101484.16;;;0.72
62611;BMP280;48683;48.084;17.272;2023-03-01T01:33:55;101486.28;;;0.70
62611;BMP280;48683;48.084;17.272;2023-03-01T01:36:21;101486.53;;;0.74
62611;BMP280;48683;48.084;17.272;2023-03-01T01:38:46;101478.59;;;0.74
62611;BMP280;48683;48.084;17.272;2023-03-01T01:41:12;101473.78;;;0.76
62611;BMP280;48683;48.084;17.272;2023-03-01T01:43:44;101471.72;;;0.73
62611;BMP280;48683;48.084;17.272;2023-03-01T01:46:27;101464.94;;;0.67
62611;BMP280;48683;48.084;17.272;2023-03-01T01:49:00;101451.88;;;0.57
62611;BMP280;48683;48.084;17.272;2023-03-01T01:51:37;101461.00;;;0.64
62611;BMP280;48683;48.084;17.272;2023-03-01T01:54:09;101456.00;;;0.63
62611;BMP280;48683;48.084;17.272;2023-03-01T01:56:37;101458.38;;;0.64
62611;BMP280;48683;48.084;17.272;2023-03-01T01:59:03;101468.16;;;0.64
62611;BMP280;48683;48.084;17.272;2023-03-01T02:01:29;101460.94;;;0.69
62611;BMP280;48683;48.084;17.272;2023-03-01T02:03:54;101459.84;;;0.70
62611;BMP280;48683;48.084;17.272;2023-03-01T02:06:49;101461.94;;;0.73
62611;BMP280;48683;48.084;17.272;2023-03-01T02:09:15;101460.28;;;0.77
62611;BMP280;48683;48.084;17.272;2023-03-01T02:11:43;101456.75;;;0.82
62611;BMP280;48683;48.084;17.272;2023-03-01T02:14:08;101451.47;;;0.82
62611;BMP280;48683;48.084;17.272;2023-03-01T02:16:34;101452.75;;;0.84
62611;BMP280;48683;48.084;17.272;2023-03-01T02:19:00;101457.19;;;0.89
62611;BMP280;48683;48.084;17.272;2023-03-01T02:21:42;101464.16;;;0.99
62611;BMP280;48683;48.084;17.272;2023-03-01T02:27:11;101451.75;;;1.13
62611;BMP280;48683;48.084;17.272;2023-03-01T02:29:37;101445.75;;;1.07
62611;BMP280;48683;48.084;17.272;2023-03-01T02:32:03;101441.53;;;1.06
62611;BMP280;48683;48.084;17.272;2023-03-01T02:34:31;101431.06;;;1.01
62611;BMP280;48683;48.084;17.272;2023-03-01T02:37:22;101437.03;;;0.93
62611;BMP280;48683;48.084;17.272;2023-03-01T02:39:54;101437.63;;;1.04
62611;BMP280;48683;48.084;17.272;2023-03-01T02:42:26;101445.56;;;1.04
62611;BMP280;48683;48.084;17.272;2023-03-01T02:44:53;101441.94;;;1.00
62611;BMP280;48683;48.084;17.272;2023-03-01T02:47:18;101436.13;;;0.98
62611;BMP280;48683;48.084;17.272;2023-03-01T02:49:44;101432.72;;;0.97
62611;BMP280;48683;48.084;17.272;2023-03-01T02:55:11;101440.56;;;1.02
62611;BMP280;48683;48.084;17.272;2023-03-01T02:57:40;101433.13;;;1.04
62611;BMP280;48683;48.084;17.272;2023-03-01T03:00:13;101438.09;;;1.06
62611;BMP280;48683;48.084;17.272;2023-03-01T03:02:44;101438.09;;;1.06
62611;BMP280;48683;48.084;17.272;2023-03-01T03:05:14;101437.81;;;1.07
62611;BMP280;48683;48.084;17.272;2023-03-01T03:07:42;101432.72;;;1.11
62611;BMP280;48683;48.084;17.272;2023-03-01T03:10:13;101432.16;;;1.14
62611;BMP280;48683;48.084;17.272;2023-03-01T03:12:39;101422.81;;;1.03
62611;BMP280;48683;48.084;17.272;2023-03-01T03:15:06;101427.16;;;1.12
62611;BMP280;48683;48.084;17.272;2023-03-01T03:17:37;101428.03;;;1.08
62611;BMP280;48683;48.084;17.272;2023-03-01T03:20:03;101424.31;;;1.09
62611;BMP280;48683;48.084;17.272;2023-03-01T03:22:30;101426.19;;;1.08
62611;BMP280;48683;48.084;17.272;2023-03-01T03:24:55;101418.31;;;1.03
62611;BMP280;48683;48.084;17.272;2023-03-01T03:27:20;101420.50;;;1.01
62611;BMP280;48683;48.084;17.272;2023-03-01T03:29:46;101418.91;;;1.00
62611;BMP280;48683;48.084;17.272;2023-03-01T03:32:11;101421.44;;;1.05
62611;BMP280;48683;48.084;17.272;2023-03-01T03:34:36;101422.22;;;1.06
62611;BMP280;48683;48.084;17.272;2023-03-01T03:37:02;101407.75;;;1.03
62611;BMP280;48683;48.084;17.272;2023-03-01T03:39:28;101424.31;;;1.09
62611;BMP280;48683;48.084;17.272;2023-03-01T03:41:54;101414.22;;;1.11
62611;BMP280;48683;48.084;17.272;2023-03-01T03:44:20;101416.06;;;1.10
62611;BMP280;48683;48.084;17.272;2023-03-01T03:46:46;101411.09;;;1.09
62611;BMP280;48683;48.084;17.272;2023-03-01T03:49:11;101408.13;;;1.10
62611;BMP280;48683;48.084;17.272;2023-03-01T03:51:36;101413.94;;;1.12
62611;BMP280;48683;48.084;17.272;2023-03-01T03:54:02;101412.56;;;1.15
62611;BMP280;48683;48.084;17.272;2023-03-01T03:56:27;101412.09;;;1.13
62611;BMP280;48683;48.084;17.272;2023-03-01T03:58:52;101416.97;;;1.19
62611;BMP280;48683;48.084;17.272;2023-03-01T04:01:18;101414.03;;;1.21
62611;BMP280;48683;48.084;17.272;2023-03-01T04:03:44;101414.25;;;1.24
62611;BMP280;48683;48.084;17.272;2023-03-01T04:06:12;101403.44;;;1.21
62611;BMP280;48683;48.084;17.272;2023-03-01T04:08:37;101397.88;;;1.22
62611;BMP280;48683;48.084;17.272;2023-03-01T04:11:04;101407.28;;;1.28
62611;BMP280;48683;48.084;17.272;2023-03-01T04:13:51;101411.78;;;1.28
62611;BMP280;48683;48.084;17.272;2023-03-01T04:16:17;101413.06;;;1.30
62611;BMP280;48683;48.084;17.272;2023-03-01T04:18:43;101407.28;;;1.28
62611;BMP280;48683;48.084;17.272;2023-03-01T04:21:08;101407.78;;;1.30
62611;BMP280;48683;48.084;17.272;2023-03-01T04:23:34;101408.16;;;1.37
62611;BMP280;48683;48.084;17.272;2023-03-01T04:26:00;101397.97;;;1.31
62611;BMP280;48683;48.084;17.272;2023-03-01T04:28:29;101407.88;;;1.39
62611;BMP280;48683;48.084;17.272;2023-03-01T04:30:56;101402.88;;;1.37
62611;BMP280;48683;48.084;17.272;2023-03-01T04:33:24;101406.50;;;1.41
62611;BMP280;48683;48.084;17.272;2023-03-01T04:35:49;101412.09;;;1.40
62611;BMP280;48683;48.084;17.272;2023-03-01T04:38:16;101407.00;;;1.43
62611;BMP280;48683;48.084;17.272;2023-03-01T04:40:41;101404.63;;;1.42
62611;BMP280;48683;48.084;17.272;2023-03-01T04:43:09;101406.59;;;1.50
62611;BMP280;48683;48.084;17.272;2023-03-01T04:45:34;101406.88;;;1.49
62611;BMP280;48683;48.084;17.272;2023-03-01T04:48:00;101408.97;;;1.52
62611;BMP280;48683;48.084;17.272;2023-03-01T04:50:25;101408.97;;;1.52
62611;BMP280;48683;48.084;17.272;2023-03-01T04:52:51;101420.22;;;1.57
62611;BMP280;48683;48.084;17.272;2023-03-01T04:55:17;101395.03;;;1.46
62611;BMP280;48683;48.084;17.272;2023-03-01T04:57:43;101409.16;;;1.55
62611;BMP280;48683;48.084;17.272;2023-03-01T05:00:12;101409.03;;;1.60
62611;BMP280;48683;48.084;17.272;2023-03-01T05:02:48;101404.84;;;1.59
62611;BMP280;48683;48.084;17.272;2023-03-01T05:05:14;101410.31;;;1.63
62611;BMP280;48683;48.084;17.272;2023-03-01T05:07:40;101403.25;;;1.58
62611;BMP280;48683;48.084;17.272;2023-03-01T05:10:06;101400.09;;;1.56
62611;BMP280;48683;48.084;17.272;2023-03-01T05:12:31;101409.72;;;1.66
62611;BMP280;48683;48.084;17.272;2023-03-01T05:14:56;101410.88;;;1.73
62611;BMP280;48683;48.084;17.272;2023-03-01T05:17:23;101404.91;;;1.68
62611;BMP280;48683;48.084;17.272;2023-03-01T05:19:49;101398.84;;;1.67
62611;BMP280;48683;48.084;17.272;2023-03-01T05:22:15;101411.84;;;1.77
62611;BMP280;48683;48.084;17.272;2023-03-01T05:24:40;101413.13;;;1.80
62611;BMP280;48683;48.084;17.272;2023-03-01T05:27:06;101411.06;;;1.77
62611;BMP280;48683;48.084;17.272;2023-03-01T05:29:31;101418.72;;;1.78
62611;BMP280;48683;48.084;17.272;2023-03-01T05:32:00;101406.38;;;1.74
62611;BMP280;48683;48.084;17.272;2023-03-01T05:34:32;101411.06;;;1.77
62611;BMP280;48683;48.084;17.272;2023-03-01T05:36:58;101409.81;;;1.74
62611;BMP280;48683;48.084;17.272;2023-03-01T05:39:25;101417.94;;;1.78
62611;BMP280;48683;48.084;17.272;2023-03-01T05:42:00;101419.81;;;1.77
62611;BMP280;48683;48.084;17.272;2023-03-01T05:44:27;101409.81;;;1.74
62611;BMP280;48683;48.084;17.272;2023-03-01T05:46:52;101414.00;;;1.75
62611;BMP280;48683;48.084;17.272;2023-03-01T05:49:18;101417.16;;;1.77
62611;BMP280;48683;48.084;17.272;2023-03-01T05:51:48;101434.50;;;1.83
62611;BMP280;48683;48.084;17.272;2023-03-01T05:54:15;101431.84;;;1.83
62611;BMP280;48683;48.084;17.272;2023-03-01T05:56:40;101440.47;;;1.89
62611;BMP280;48683;48.084;17.272;2023-03-01T05:59:06;101441.47;;;1.93
62611;BMP280;48683;48.084;17.272;2023-03-01T06:01:32;101441.94;;;1.95
62611;BMP280;48683;48.084;17.272;2023-03-01T06:03:57;101443.78;;;1.95
62611;BMP280;48683;48.084;17.272;2023-03-01T06:06:23;101442.72;;;1.96
62611;BMP280;48683;48.084;17.272;2023-03-01T06:08:49;101440.06;;;1.96
62611;BMP280;48683;48.084;17.272;2023-03-01T06:11:15;101442.13;;;1.99
62611;BMP280;48683;48.084;17.272;2023-03-01T06:13:42;101436.06;;;1.98
62611;BMP280;48683;48.084;17.272;2023-03-01T06:16:07;101435.38;;;2.06
62611;BMP280;48683;48.084;17.272;2023-03-01T06:18:33;101437.03;;;2.02
62611;BMP280;48683;48.084;17.272;2023-03-01T06:20:58;101435.84;;;2.08
62611;BMP280;48683;48.084;17.272;2023-03-01T06:23:24;101435.53;;;2.10
62611;BMP280;48683;48.084;17.272;2023-03-01T06:25:49;101436.44;;;2.05
62611;BMP280;48683;48.084;17.272;2023-03-01T06:28:15;101440.25;;;2.13
62611;BMP280;48683;48.084;17.272;2023-03-01T06:30:40;101448.84;;;2.18
62611;BMP280;48683;48.084;17.272;2023-03-01T06:33:06;101448.09;;;2.18
62611;BMP280;48683;48.084;17.272;2023-03-01T06:35:31;101452.28;;;2.19
62611;BMP280;48683;48.084;17.272;2023-03-01T06:37:58;101452.19;;;2.24
62611;BMP280;48683;48.084;17.272;2023-03-01T06:40:24;101461.09;;;2.28
62611;BMP280;48683;48.084;17.272;2023-03-01T06:42:50;101459.25;;;2.28
62611;BMP280;48683;48.084;17.272;2023-03-01T06:45:17;101459.72;;;2.30
62611;BMP280;48683;48.084;17.272;2023-03-01T06:47:42;101461.47;;;2.35
62611;BMP280;48683;48.084;17.272;2023-03-01T06:50:08;101461.47;;;2.35
62611;BMP280;48683;48.084;17.272;2023-03-01T06:52:34;101465.09;;;2.39
62611;BMP280;48683;48.084;17.272;2023-03-01T06:54:59;101464.81;;;2.41
62611;BMP280;48683;48.084;17.272;2023-03-01T06:57:25;101456.25;;;2.44
62611;BMP280;48683;48.084;17.272;2023-03-01T06:59:51;101456.91;;;2.49
62611;BMP280;48683;48.084;17.272;2023-03-01T07:02:16;101454.13;;;2.54
62611;BMP280;48683;48.084;17.272;2023-03-01T07:04:42;101442.47;;;2.55
62611;BMP280;48683;48.084;17.272;2023-03-01T07:07:08;101448.13;;;2.62
62611;BMP280;48683;48.084;17.272;2023-03-01T07:09:33;101447.66;;;2.60
62611;BMP280;48683;48.084;17.272;2023-03-01T07:11:59;101442.03;;;2.62
62611;BMP280;48683;48.084;17.272;2023-03-01T07:14:25;101458.00;;;2.70
62611;BMP280;48683;48.084;17.272;2023-03-01T07:16:51;101437.69;;;2.66
62611;BMP280;48683;48.084;17.272;2023-03-01T07:19:18;101443.34;;;2.73
62611;BMP280;48683;48.084;17.272;2023-03-01T07:21:43;101438.66;;;2.70
62611;BMP280;48683;48.084;17.272;2023-03-01T07:24:09;101443.34;;;2.73
62611;BMP280;48683;48.084;17.272;2023-03-01T07:26:35;101445.09;;;2.77
62611;BMP280;48683;48.084;17.272;2023-03-01T07:29:02;101446.22;;;2.85
62611;BMP280;48683;48.084;17.272;2023-03-01T07:31:28;101446.72;;;2.87
62611;BMP280;48683;48.084;17.272;2023-03-01T07:33:54;101442.06;;;2.93
62611;BMP280;48683;48.084;17.272;2023-03-01T07:36:20;101445.69;;;2.97
62611;BMP280;48683;48.084;17.272;2023-03-01T07:38:45;101447.59;;;3.05
62611;BMP280;48683;48.084;17.272;2023-03-01T07:41:11;101441.03;;;3.02
62611;BMP280;48683;48.084;17.272;2023-03-01T07:43:36;101434.81;;;3.07
62611;BMP280;48683;48.084;17.272;2023-03-01T07:46:03;101443.75;;;3.11
62611;BMP280;48683;48.084;17.272;2023-03-01T07:48:29;101444.56;;;3.20
62611;BMP280;48683;48.084;17.272;2023-03-01T07:50:58;101445.56;;;3.32
62611;BMP280;48683;48.084;17.272;2023-03-01T07:53:24;101436.34;;;3.39
62611;BMP280;48683;48.084;17.272;2023-03-01T07:55:49;101439.63;;;3.35
62611;BMP280;48683;48.084;17.272;2023-03-01T07:58:14;101434.66;;;3.43
62611;BMP280;48683;48.084;17.272;2023-03-01T08:00:40;101442.34;;;3.53
62611;BMP280;48683;48.084;17.272;2023-03-01T08:03:05;101443.00;;;3.67
62611;BMP280;48683;48.084;17.272;2023-03-01T08:05:31;101441.63;;;3.78
62611;BMP280;48683;48.084;17.272;2023-03-01T08:07:57;101449.47;;;3.83
62611;BMP280;48683;48.084;17.272;2023-03-01T08:10:22;101441.97;;;3.94
62611;BMP280;48683;48.084;17.272;2023-03-01T08:12:48;101447.78;;;4.13
62611;BMP280;48683;48.084;17.272;2023-03-01T08:15:15;101447.63;;;4.18
62611;BMP280;48683;48.084;17.272;2023-03-01T08:17:41;101435.91;;;4.19
62611;BMP280;48683;48.084;17.272;2023-03-01T08:20:06;101437.16;;;4.21
62611;BMP280;48683;48.084;17.272;2023-03-01T08:22:32;101440.28;;;4.32
62611;BMP280;48683;48.084;17.272;2023-03-01T08:24:58;101439.34;;;4.37
62611;BMP280;48683;48.084;17.272;2023-03-01T08:27:23;101433.88;;;4.42
62611;BMP280;48683;48.084;17.272;2023-03-01T08:29:48;101435.47;;;4.51
62611;BMP280;48683;48.084;17.272;2023-03-01T08:32:14;101430.25;;;4.63
62611;BMP280;48683;48.084;17.272;2023-03-01T08:34:39;101431.97;;;4.59
62611;BMP280;48683;48.084;17.272;2023-03-01T08:37:04;101426.84;;;4.63
62611;BMP280;48683;48.084;17.272;2023-03-01T08:39:30;101431.50;;;4.74
62611;BMP280;48683;48.084;17.272;2023-03-01T08:41:56;101422.56;;;4.79
62611;BMP280;48683;48.084;17.272;2023-03-01T08:44:21;101426.28;;;4.87
62611;BMP280;48683;48.084;17.272;2023-03-01T08:46:47;101421.63;;;4.84
62611;BMP280;48683;48.084;17.272;2023-03-01T08:49:17;101422.25;;;4.89
62611;BMP280;48683;48.084;17.272;2023-03-01T08:51:43;101426.91;;;5.01
62611;BMP280;48683;48.084;17.272;2023-03-01T08:54:17;101415.63;;;5.04
62611;BMP280;48683;48.084;17.272;2023-03-01T08:56:43;101418.09;;;5.09
62611;BMP280;48683;48.084;17.272;2023-03-01T08:59:10;101416.19;;;5.18
62611;BMP280;48683;48.084;17.272;2023-03-01T09:01:35;101399.00;;;5.07
62611;BMP280;48683;48.084;17.272;2023-03-01T09:04:02;101407.06;;;5.28
62611;BMP280;48683;48.084;17.272;2023-03-01T09:06:30;101416.81;;;5.53
62611;BMP280;48683;48.084;17.272;2023-03-01T09:08:56;101409.38;;;5.67
62611;BMP280;48683;48.084;17.272;2023-03-01T09:11:22;101396.59;;;5.81
62611;BMP280;48683;48.084;17.272;2023-03-01T09:13:48;101390.75;;;5.88
62611;BMP280;48683;48.084;17.272;2023-03-01T09:16:17;101399.28;;;6.02
62611;BMP280;48683;48.084;17.272;2023-03-01T09:18:43;101393.13;;;6.10
62611;BMP280;48683;48.084;17.272;2023-03-01T09:21:15;101399.06;;;6.28
62611;BMP280;48683;48.084;17.272;2023-03-01T09:23:45;101393.72;;;6.48
62611;BMP280;48683;48.084;17.272;2023-03-01T09:26:13;101388.25;;;6.45
62611;BMP280;48683;48.084;17.272;2023-03-01T09:28:39;101389.66;;;6.63
62611;BMP280;48683;48.084;17.272;2023-03-01T09:31:09;101377.22;;;6.79
62611;BMP280;48683;48.084;17.272;2023-03-01T09:33:38;101373.91;;;6.82
62611;BMP280;48683;48.084;17.272;2023-03-01T09:36:06;101366.47;;;6.88
62611;BMP280;48683;48.084;17.272;2023-03-01T09:38:32;101367.81;;;7.06
62611;BMP280;48683;48.084;17.272;2023-03-01T09:40:59;101362.38;;;7.27
62611;BMP280;48683;48.084;17.272;2023-03-01T09:45:55;101353.56;;;7.50
62611;BMP280;48683;48.084;17.272;2023-03-01T09:48:26;101349.41;;;7.65
62611;BMP280;48683;48.084;17.272;2023-03-01T09:50:52;101334.16;;;7.53
62611;BMP280;48683;48.084;17.272;2023-03-01T09:53:20;101343.78;;;7.82
62611;BMP280;48683;48.084;17.272;2023-03-01T09:55:59;101339.00;;;7.88
62611;BMP280;48683;48.084;17.272;2023-03-01T09:58:52;101345.31;;;8.23
62611;BMP280;48683;48.084;17.272;2023-03-01T10:01:32;101328.53;;;8.10
62611;BMP280;48683;48.084;17.272;2023-03-01T10:06:59;101325.53;;;8.40
62611;BMP280;48683;48.084;17.272;2023-03-01T10:09:29;101324.16;;;8.46
62611;BMP280;48683;48.084;17.272;2023-03-01T10:11:56;101316.28;;;8.37
62611;BMP280;48683;48.084;17.272;2023-03-01T10:14:34;101306.97;;;8.31
62611;BMP280;48683;48.084;17.272;2023-03-01T10:17:03;101301.25;;;8.33
62611;BMP280;48683;48.084;17.272;2023-03-01T10:19:33;101298.50;;;8.17
62611;BMP280;48683;48.084;17.272;2023-03-01T10:22:25;101297.84;;;8.20
62611;BMP280;48683;48.084;17.272;2023-03-01T10:24:53;101286.19;;;8.13
62611;BMP280;48683;48.084;17.272;2023-03-01T10:27:24;101303.34;;;8.11
62611;BMP280;48683;48.084;17.272;2023-03-01T10:30:00;101304.63;;;8.30
62611;BMP280;48683;48.084;17.272;2023-03-01T10:32:28;101286.28;;;8.16
62611;BMP280;48683;48.084;17.272;2023-03-01T10:34:54;101288.44;;;8.26
62611;BMP280;48683;48.084;17.272;2023-03-01T10:37:21;101285.97;;;8.33
62611;BMP280;48683;48.084;17.272;2023-03-01T10:40:04;101279.00;;;8.01
62611;BMP280;48683;48.084;17.272;2023-03-01T10:42:47;101277.31;;;8.24
62611;BMP280;48683;48.084;17.272;2023-03-01T10:48:17;101269.84;;;8.45
62611;BMP280;48683;48.084;17.272;2023-03-01T10:50:45;101260.94;;;8.41
62611;BMP280;48683;48.084;17.272;2023-03-01T10:53:38;101255.34;;;8.62
62611;BMP280;48683;48.084;17.272;2023-03-01T10:56:10;101248.88;;;8.63
62611;BMP280;48683;48.084;17.272;2023-03-01T10:58:40;101236.94;;;8.45
62611;BMP280;48683;48.084;17.272;2023-03-01T11:01:25;101239.03;;;8.51
62611;BMP280;48683;48.084;17.272;2023-03-01T11:04:17;101233.34;;;8.53
62611;BMP280;48683;48.084;17.272;2023-03-01T11:06:43;101235.06;;;8.61
62611;BMP280;48683;48.084;17.272;2023-03-01T11:09:20;101234.53;;;8.71
62611;BMP280;48683;48.084;17.272;2023-03-01T11:11:48;101228.25;;;8.64
62611;BMP280;48683;48.084;17.272;2023-03-01T11:14:20;101229.53;;;8.70
62611;BMP280;48683;48.084;17.272;2023-03-01T11:16:48;101227.72;;;8.74
62611;BMP280;48683;48.084;17.272;2023-03-01T11:19:17;101222.50;;;8.81
62611;BMP280;48683;48.084;17.272;2023-03-01T11:24:11;101208.63;;;8.75
62611;BMP280;48683;48.084;17.272;2023-03-01T11:26:41;101208.19;;;8.73
62611;BMP280;48683;48.084;17.272;2023-03-01T11:29:21;101209.59;;;8.67
62611;BMP280;48683;48.084;17.272;2023-03-01T11:31:48;101216.19;;;8.89
62611;BMP280;48683;48.084;17.272;2023-03-01T11:34:19;101215.16;;;8.93
62611;BMP280;48683;48.084;17.272;2023-03-01T11:36:54;101207.63;;;8.83
62611;BMP280;48683;48.084;17.272;2023-03-01T11:39:36;101211.09;;;8.84
62611;BMP280;48683;48.084;17.272;2023-03-01T11:42:12;101208.22;;;8.92
62611;BMP280;48683;48.084;17.272;2023-03-01T11:44:42;101194.69;;;8.85
62611;BMP280;48683;48.084;17.272;2023-03-01T11:47:20;101207.19;;;8.97
62611;BMP280;48683;48.084;17.272;2023-03-01T12:12:52;101190.91;;;8.86
62611;BMP280;48683;48.084;17.272;2023-03-01T12:21:39;101187.28;;;9.14
62611;BMP280;48683;48.084;17.272;2023-03-01T12:27:16;101172.25;;;9.09
62611;BMP280;48683;48.084;17.272;2023-03-01T12:37:56;101168.00;;;9.66
62611;BMP280;48683;48.084;17.272;2023-03-01T12:41:36;101165.44;;;9.73
62611;BMP280;48683;48.084;17.272;2023-03-01T12:43:56;101153.50;;;9.47
62611;BMP280;48683;48.084;17.272;2023-03-01T12:46:45;101153.50;;;9.47
62611;BMP280;48683;48.084;17.272;2023-03-01T12:49:31;101150.94;;;8.97
62611;BMP280;48683;48.084;17.272;2023-03-01T12:52:20;101159.34;;;9.15
62611;BMP280;48683;48.084;17.272;2023-03-01T12:54:49;101153.44;;;9.25
62611;BMP280;48683;48.084;17.272;2023-03-01T12:57:29;101152.38;;;9.29
62611;BMP280;48683;48.084;17.272;2023-03-01T13:03:02;101146.56;;;9.46
62611;BMP280;48683;48.084;17.272;2023-03-01T13:08:45;101142.91;;;9.54
62611;BMP280;48683;48.084;17.272;2023-03-01T13:11:20;101127.88;;;9.31
62611;BMP280;48683;48.084;17.272;2023-03-01T13:13:46;101119.25;;;9.18
62611;BMP280;48683;48.084;17.272;2023-03-01T13:19:17;101123.03;;;9.36
62611;BMP280;48683;48.084;17.272;2023-03-01T13:21:44;101133.28;;;9.53
62611;BMP280;48683;48.084;17.272;2023-03-01T13:24:35;101116.06;;;9.32
62611;BMP280;48683;48.084;17.272;2023-03-01T13:29:48;101119.75;;;9.46
62611;BMP280;48683;48.084;17.272;2023-03-01T13:32:25;101120.19;;;9.48
62611;BMP280;48683;48.084;17.272;2023-03-01T13:34:58;101119.59;;;9.59
62611;BMP280;48683;48.084;17.272;2023-03-01T13:37:26;101116.16;;;9.58
62611;BMP280;48683;48.084;17.272;2023-03-01T13:39:55;101110.06;;;9.61
62611;BMP280;48683;48.084;17.272;2023-03-01T13:42:40;101101.63;;;9.59
62611;BMP280;48683;48.084;17.272;2023-03-01T13:48:28;101100.97;;;9.66
62611;BMP280;48683;48.084;17.272;2023-03-01T13:51:02;101096.66;;;9.61
62611;BMP280;48683;48.084;17.272;2023-03-01T13:53:35;101085.50;;;9.36
62611;BMP280;48683;48.084;17.272;2023-03-01T13:56:11;101084.69;;;9.55
62611;BMP280;48683;48.084;17.272;2023-03-01T13:58:47;101064.31;;;9.50
62611;BMP280;48683;48.084;17.272;2023-03-01T14:01:22;101065.53;;;9.53
62611;BMP280;48683;48.084;17.272;2023-03-01T14:03:48;101071.13;;;9.44
62611;BMP280;48683;48.084;17.272;2023-03-01T14:06:20;101064.34;;;9.31
62611;BMP280;48683;48.084;17.272;2023-03-01T14:08:48;101060.00;;;9.23
62611;BMP280;48683;48.084;17.272;2023-03-01T14:17:02;101044.56;;;9.17
62611;BMP280;48683;48.084;17.272;2023-03-01T14:19:31;101048.59;;;9.07
62611;BMP280;48683;48.084;17.272;2023-03-01T14:24:47;101042.91;;;8.89
62611;BMP280;48683;48.084;17.272;2023-03-01T14:27:14;101044.03;;;8.88
62611;BMP280;48683;48.084;17.272;2023-03-01T14:29:40;101053.75;;;8.77
62611;BMP280;48683;48.084;17.272;2023-03-01T14:32:27;101037.41;;;8.82
62611;BMP280;48683;48.084;17.272;2023-03-01T14:34:52;101037.41;;;8.82
62611;BMP280;48683;48.084;17.272;2023-03-01T14:37:30;101037.50;;;8.86
62611;BMP280;48683;48.084;17.272;2023-03-01T14:39:58;101037.50;;;8.86
62611;BMP280;48683;48.084;17.272;2023-03-01T14:42:27;101039.03;;;8.87
62611;BMP280;48683;48.084;17.272;2023-03-01T14:44:54;101030.00;;;8.76
62611;BMP280;48683;48.084;17.272;2023-03-01T14:47:25;101033.84;;;8.75
62611;BMP280;48683;48.084;17.272;2023-03-01T14:49:57;101032.13;;;8.67
62611;BMP280;48683;48.084;17.272;2023-03-01T14:52:31;101031.50;;;8.73
62611;BMP280;48683;48.084;17.272;2023-03-01T14:54:59;101031.75;;;8.68
62611;BMP280;48683;48.084;17.272;2023-03-01T14:57:26;101019.88;;;8.66
62611;BMP280;48683;48.084;17.272;2023-03-01T14:59:53;101016.78;;;8.64
62611;BMP280;48683;48.084;17.272;2023-03-01T15:02:22;101015.22;;;8.63
62611;BMP280;48683;48.084;17.272;2023-03-01T15:04:51;101012.09;;;8.61
62611;BMP280;48683;48.084;17.272;2023-03-01T15:07:18;101000.28;;;8.62
62611;BMP280;48683;48.084;17.272;2023-03-01T15:09:44;101003.94;;;8.53
62611;BMP280;48683;48.084;17.272;2023-03-01T15:12:37;101004.44;;;8.59
62611;BMP280;48683;48.084;17.272;2023-03-01T15:15:20;101014.00;;;8.60
62611;BMP280;48683;48.084;17.272;2023-03-01T15:17:50;101007.81;;;8.56
62611;BMP280;48683;48.084;17.272;2023-03-01T15:20:18;101009.28;;;8.53
62611;BMP280;48683;48.084;17.272;2023-03-01T15:22:47;101023.53;;;8.57
62611;BMP280;48683;48.084;17.272;2023-03-01T15:25:22;101007.81;;;8.56
62611;BMP280;48683;48.084;17.272;2023-03-01T15:27:49;101014.78;;;8.61
62611;BMP280;48683;48.084;17.272;2023-03-01T15:30:35;101005.13;;;8.56